sensor_id;sensor_type;location;lat;lon;timestamp;temperature;humidity
11264;DHT22;5689;48.798;9.070;2023-02-04T00:01:41;7.20;99.90
11264;DHT22;5689;48.798;9.070;2023-02-04T00:04:11;7.20;99.90
11264;DHT22;5689;48.798;9.070;2023-02-04T00:06:41;7.20;99.90
11264;DHT22;5689;48.798;9.070;2023-02-04T00:09:09;7.20;99.90
11264;DHT22;5689;48.798;9.070;2023-02-04T00:11:37;7.20;99.90
11264;DHT22;5689;48.798;9.070;2023-02-04T00:14:05;7.20;99.90
11264;DHT22;5689;48.798;9.070;2023-02-04T00:16:32;7.30;99.90
11264;DHT22;5689;48.798;9.070;2023-02-04T00:19:00;7.20;99.90
11264;DHT22;5689;48.798;9.070;2023-02-04T00:21:28;7.30;99.90
11264;DHT22;5689;48.798;9.070;2023-02-04T00:23:58;7.30;99.90
11264;DHT22;5689;48.798;9.070;2023-02-04T00:26:26;7.30;99.90
11264;DHT22;5689;48.798;9.070;2023-02-04T00:28:53;7.30;99.90
11264;DHT22;5689;48.798;9.070;2023-02-04T00:31:21;7.30;99.90
11264;DHT22;5689;48.798;9.070;2023-02-04T00:33:49;7.30;99.90
11264;DHT22;5689;48.798;9.070;2023-02-04T00:36:17;7.30;99.90
11264;DHT22;5689;48.798;9.070;2023-02-04T00:38:45;7.30;99.90
11264;DHT22;5689;48.798;9.070;2023-02-04T00:41:15;7.30;99.90
11264;DHT22;5689;48.798;9.070;2023-02-04T00:43:45;7.30;99.90
11264;DHT22;5689;48.798;9.070;2023-02-04T00:46:12;7.30;99.90
11264;DHT22;5689;48.798;9.070;2023-02-04T00:48:40;7.30;99.90
11264;DHT22;5689;48.798;9.070;2023-02-04T00:51:08;7.30;99.90
11264;DHT22;5689;48.798;9.070;2023-02-04T00:53:37;7.30;99.90
11264;DHT22;5689;48.798;9.070;2023-02-04T00:56:05;7.20;99.90
11264;DHT22;5689;48.798;9.070;2023-02-04T00:58:35;7.20;99.90
11264;DHT22;5689;48.798;9.070;2023-02-04T01:01:03;7.20;99.90
11264;DHT22;5689;48.798;9.070;2023-02-04T01:03:31;7.10;99.90
11264;DHT22;5689;48.798;9.070;2023-02-04T01:05:59;7.10;99.90
11264;DHT22;5689;48.798;9.070;2023-02-04T01:08:27;7.10;99.90
11264;DHT22;5689;48.798;9.070;2023-02-04T01:10:55;7.10;99.90
11264;DHT22;5689;48.798;9.070;2023-02-04T01:13:24;7.10;99.90
11264;DHT22;5689;48.798;9.070;2023-02-04T01:15:53;7.10;99.90
11264;DHT22;5689;48.798;9.070;2023-02-04T01:18:21;7.10;99.90
11264;DHT22;5689;48.798;9.070;2023-02-04T01:20:49;7.10;99.90
11264;DHT22;5689;48.798;9.070;2023-02-04T01:23:17;7.10;99.90
11264;DHT22;5689;48.798;9.070;2023-02-04T01:25:45;7.20;99.90
11264;DHT22;5689;48.798;9.070;2023-02-04T01:28:13;7.10;99.90
11264;DHT22;5689;48.798;9.070;2023-02-04T01:30:41;7.10;99.90
11264;DHT22;5689;48.798;9.070;2023-02-04T01:33:10;7.00;99.90
11264;DHT22;5689;48.798;9.070;2023-02-04T01:35:38;6.90;99.90
11264;DHT22;5689;48.798;9.070;2023-02-04T01:38:06;6.90;99.90
11264;DHT22;5689;48.798;9.070;2023-02-04T01:40:34;6.80;99.90
11264;DHT22;5689;48.798;9.070;2023-02-04T01:43:03;6.80;99.90
11264;DHT22;5689;48.798;9.070;2023-02-04T01:45:32;6.80;99.90
11264;DHT22;5689;48.798;9.070;2023-02-04T01:48:02;6.70;99.90
11264;DHT22;5689;48.798;9.070;2023-02-04T01:50:32;6.60;99.90
11264;DHT22;5689;48.798;9.070;2023-02-04T01:53:00;6.60;99.90
11264;DHT22;5689;48.798;9.070;2023-02-04T01:55:31;6.60;99.90
11264;DHT22;5689;48.798;9.070;2023-02-04T01:57:59;6.50;99.90
11264;DHT22;5689;48.798;9.070;2023-02-04T02:00:30;6.50;99.90
11264;DHT22;5689;48.798;9.070;2023-02-04T02:02:59;6.40;99.90
11264;DHT22;5689;48.798;9.070;2023-02-04T02:05:40;6.20;99.90
11264;DHT22;5689;48.798;9.070;2023-02-04T02:08:09;6.20;99.90
11264;DHT22;5689;48.798;9.070;2023-02-04T02:10:39;6.20;99.90
11264;DHT22;5689;48.798;9.070;2023-02-04T02:13:10;6.20;99.90
11264;DHT22;5689;48.798;9.070;2023-02-04T02:15:39;6.10;99.90
11264;DHT22;5689;48.798;9.070;2023-02-04T02:18:08;6.10;99.90
11264;DHT22;5689;48.798;9.070;2023-02-04T02:20:38;6.10;99.90
11264;DHT22;5689;48.798;9.070;2023-02-04T02:23:17;6.10;99.90
11264;DHT22;5689;48.798;9.070;2023-02-04T02:25:49;6.10;99.90
11264;DHT22;5689;48.798;9.070;2023-02-04T02:28:20;6.00;99.90
11264;DHT22;5689;48.798;9.070;2023-02-04T02:30:49;6.00;99.90
11264;DHT22;5689;48.798;9.070;2023-02-04T02:33:19;6.00;99.90
11264;DHT22;5689;48.798;9.070;2023-02-04T02:35:48;6.00;99.90
11264;DHT22;5689;48.798;9.070;2023-02-04T02:38:17;6.00;99.90
11264;DHT22;5689;48.798;9.070;2023-02-04T02:40:47;5.90;99.90
11264;DHT22;5689;48.798;9.070;2023-02-04T02:43:18;6.00;99.90
11264;DHT22;5689;48.798;9.070;2023-02-04T02:45:48;6.00;99.90
11264;DHT22;5689;48.798;9.070;2023-02-04T02:48:17;6.00;99.90
11264;DHT22;5689;48.798;9.070;2023-02-04T02:50:46;5.90;99.90
11264;DHT22;5689;48.798;9.070;2023-02-04T02:53:16;5.90;99.90
11264;DHT22;5689;48.798;9.070;2023-02-04T02:55:45;5.90;99.90
11264;DHT22;5689;48.798;9.070;2023-02-04T02:58:22;5.90;99.90
11264;DHT22;5689;48.798;9.070;2023-02-04T03:00:51;5.90;99.90
11264;DHT22;5689;48.798;9.070;2023-02-04T03:03:22;5.90;99.90
11264;DHT22;5689;48.798;9.070;2023-02-04T03:05:54;5.90;99.90
11264;DHT22;5689;48.798;9.070;2023-02-04T03:08:23;5.90;99.90
11264;DHT22;5689;48.798;9.070;2023-02-04T03:10:51;5.90;99.90
11264;DHT22;5689;48.798;9.070;2023-02-04T03:13:21;5.90;99.90
11264;DHT22;5689;48.798;9.070;2023-02-04T03:15:49;5.90;99.90
11264;DHT22;5689;48.798;9.070;2023-02-04T03:18:18;5.90;99.90
11264;DHT22;5689;48.798;9.070;2023-02-04T03:20:48;5.90;99.90
11264;DHT22;5689;48.798;9.070;2023-02-04T03:23:18;5.90;99.90
11264;DHT22;5689;48.798;9.070;2023-02-04T03:25:46;5.90;99.90
11264;DHT22;5689;48.798;9.070;2023-02-04T03:28:16;6.00;99.90
11264;DHT22;5689;48.798;9.070;2023-02-04T03:30:45;5.90;99.90
11264;DHT22;5689;48.798;9.070;2023-02-04T03:33:21;5.90;99.90
11264;DHT22;5689;48.798;9.070;2023-02-04T03:35:49;5.80;99.90
11264;DHT22;5689;48.798;9.070;2023-02-04T03:38:17;5.90;99.90
11264;DHT22;5689;48.798;9.070;2023-02-04T03:40:46;5.80;99.90
11264;DHT22;5689;48.798;9.070;2023-02-04T03:43:14;5.70;99.90
11264;DHT22;5689;48.798;9.070;2023-02-04T03:45:42;5.70;99.90
11264;DHT22;5689;48.798;9.070;2023-02-04T03:48:12;5.80;99.90
11264;DHT22;5689;48.798;9.070;2023-02-04T03:50:41;5.80;99.90
11264;DHT22;5689;48.798;9.070;2023-02-04T03:53:08;5.70;99.90
11264;DHT22;5689;48.798;9.070;2023-02-04T03:55:36;5.70;99.90
11264;DHT22;5689;48.798;9.070;2023-02-04T03:58:04;5.80;99.90
11264;DHT22;5689;48.798;9.070;2023-02-04T04:00:32;5.70;99.90
11264;DHT22;5689;48.798;9.070;2023-02-04T04:03:01;5.80;99.90
11264;DHT22;5689;48.798;9.070;2023-02-04T04:05:30;5.80;99.90
11264;DHT22;5689;48.798;9.070;2023-02-04T04:07:58;5.80;99.90
11264;DHT22;5689;48.798;9.070;2023-02-04T04:10:26;5.90;99.90
11264;DHT22;5689;48.798;9.070;2023-02-04T04:12:55;6.00;99.90
11264;DHT22;5689;48.798;9.070;2023-02-04T04:15:23;6.00;99.90
11264;DHT22;5689;48.798;9.070;2023-02-04T04:17:51;5.90;99.90
11264;DHT22;5689;48.798;9.070;2023-02-04T04:20:19;6.00;99.90
11264;DHT22;5689;48.798;9.070;2023-02-04T04:22:52;6.00;99.90
11264;DHT22;5689;48.798;9.070;2023-02-04T04:25:20;5.90;99.90
11264;DHT22;5689;48.798;9.070;2023-02-04T04:27:48;6.00;99.90
11264;DHT22;5689;48.798;9.070;2023-02-04T04:30:17;6.10;99.90
11264;DHT22;5689;48.798;9.070;2023-02-04T04:32:45;5.90;99.90
11264;DHT22;5689;48.798;9.070;2023-02-04T04:35:13;5.90;99.90
11264;DHT22;5689;48.798;9.070;2023-02-04T04:37:41;6.00;99.90
11264;DHT22;5689;48.798;9.070;2023-02-04T04:40:11;6.00;99.90
11264;DHT22;5689;48.798;9.070;2023-02-04T04:42:39;6.00;99.90
11264;DHT22;5689;48.798;9.070;2023-02-04T04:45:08;6.10;99.90
11264;DHT22;5689;48.798;9.070;2023-02-04T04:47:36;6.20;99.90
11264;DHT22;5689;48.798;9.070;2023-02-04T04:50:05;6.20;99.90
11264;DHT22;5689;48.798;9.070;2023-02-04T04:52:33;6.20;99.90
11264;DHT22;5689;48.798;9.070;2023-02-04T04:55:01;6.20;99.90
11264;DHT22;5689;48.798;9.070;2023-02-04T04:57:30;6.20;99.90
11264;DHT22;5689;48.798;9.070;2023-02-04T04:59:59;6.30;99.90
11264;DHT22;5689;48.798;9.070;2023-02-04T05:02:27;6.30;99.90
11264;DHT22;5689;48.798;9.070;2023-02-04T05:04:55;6.20;99.90
11264;DHT22;5689;48.798;9.070;2023-02-04T05:07:23;6.20;99.90
11264;DHT22;5689;48.798;9.070;2023-02-04T05:09:51;6.40;99.90
11264;DHT22;5689;48.798;9.070;2023-02-04T05:12:19;6.30;99.90
11264;DHT22;5689;48.798;9.070;2023-02-04T05:14:48;6.20;99.90
11264;DHT22;5689;48.798;9.070;2023-02-04T05:17:16;6.20;99.90
11264;DHT22;5689;48.798;9.070;2023-02-04T05:19:44;6.20;99.90
11264;DHT22;5689;48.798;9.070;2023-02-04T05:22:13;6.00;99.90
11264;DHT22;5689;48.798;9.070;2023-02-04T05:24:41;6.10;99.90
11264;DHT22;5689;48.798;9.070;2023-02-04T05:27:09;6.00;99.90
11264;DHT22;5689;48.798;9.070;2023-02-04T05:29:37;6.00;99.90
11264;DHT22;5689;48.798;9.070;2023-02-04T05:32:06;5.90;99.90
11264;DHT22;5689;48.798;9.070;2023-02-04T05:34:34;5.90;99.90
11264;DHT22;5689;48.798;9.070;2023-02-04T05:37:03;5.90;99.90
11264;DHT22;5689;48.798;9.070;2023-02-04T05:39:31;5.80;99.90
11264;DHT22;5689;48.798;9.070;2023-02-04T05:41:59;5.80;99.90
11264;DHT22;5689;48.798;9.070;2023-02-04T05:44:27;5.80;99.90
11264;DHT22;5689;48.798;9.070;2023-02-04T05:46:55;5.90;99.90
11264;DHT22;5689;48.798;9.070;2023-02-04T05:49:25;6.00;99.90
11264;DHT22;5689;48.798;9.070;2023-02-04T05:51:53;5.70;99.90
11264;DHT22;5689;48.798;9.070;2023-02-04T05:54:21;5.70;99.90
11264;DHT22;5689;48.798;9.070;2023-02-04T05:56:49;5.80;99.90
11264;DHT22;5689;48.798;9.070;2023-02-04T05:59:17;5.70;99.90
11264;DHT22;5689;48.798;9.070;2023-02-04T06:01:45;5.60;99.90
11264;DHT22;5689;48.798;9.070;2023-02-04T06:04:13;5.60;99.90
11264;DHT22;5689;48.798;9.070;2023-02-04T06:06:43;5.60;99.90
11264;DHT22;5689;48.798;9.070;2023-02-04T06:09:11;5.60;99.90
11264;DHT22;5689;48.798;9.070;2023-02-04T06:11:39;5.60;99.90
11264;DHT22;5689;48.798;9.070;2023-02-04T06:14:07;5.70;99.90
11264;DHT22;5689;48.798;9.070;2023-02-04T06:16:36;5.60;99.90
11264;DHT22;5689;48.798;9.070;2023-02-04T06:19:04;5.60;99.90
11264;DHT22;5689;48.798;9.070;2023-02-04T06:21:32;5.60;99.90
11264;DHT22;5689;48.798;9.070;2023-02-04T06:24:02;5.50;99.90
11264;DHT22;5689;48.798;9.070;2023-02-04T06:26:31;5.40;99.90
11264;DHT22;5689;48.798;9.070;2023-02-04T06:28:59;5.40;99.90
11264;DHT22;5689;48.798;9.070;2023-02-04T06:31:27;5.30;99.90
11264;DHT22;5689;48.798;9.070;2023-02-04T06:33:55;5.40;99.90
11264;DHT22;5689;48.798;9.070;2023-02-04T06:36:23;5.40;99.90
11264;DHT22;5689;48.798;9.070;2023-02-04T06:38:51;5.40;99.90
11264;DHT22;5689;48.798;9.070;2023-02-04T06:41:21;5.50;99.90
11264;DHT22;5689;48.798;9.070;2023-02-04T06:43:49;5.40;99.90
11264;DHT22;5689;48.798;9.070;2023-02-04T06:46:17;5.30;99.90
11264;DHT22;5689;48.798;9.070;2023-02-04T06:48:45;5.30;99.90
11264;DHT22;5689;48.798;9.070;2023-02-04T06:51:13;5.30;99.90
11264;DHT22;5689;48.798;9.070;2023-02-04T06:53:41;5.30;99.90
11264;DHT22;5689;48.798;9.070;2023-02-04T06:56:11;5.40;99.90
11264;DHT22;5689;48.798;9.070;2023-02-04T06:58:40;5.50;99.90
11264;DHT22;5689;48.798;9.070;2023-02-04T07:01:08;5.40;99.90
11264;DHT22;5689;48.798;9.070;2023-02-04T07:03:36;5.60;99.90
11264;DHT22;5689;48.798;9.070;2023-02-04T07:06:05;5.50;99.90
11264;DHT22;5689;48.798;9.070;2023-02-04T07:08:33;5.50;99.90
11264;DHT22;5689;48.798;9.070;2023-02-04T07:11:01;5.40;99.90
11264;DHT22;5689;48.798;9.070;2023-02-04T07:13:29;5.40;99.90
11264;DHT22;5689;48.798;9.070;2023-02-04T07:15:58;5.50;99.90
11264;DHT22;5689;48.798;9.070;2023-02-04T07:18:26;5.40;99.90
11264;DHT22;5689;48.798;9.070;2023-02-04T07:20:54;5.40;99.90
11264;DHT22;5689;48.798;9.070;2023-02-04T07:23:22;5.40;99.90
11264;DHT22;5689;48.798;9.070;2023-02-04T07:25:51;5.40;99.90
11264;DHT22;5689;48.798;9.070;2023-02-04T07:28:19;5.40;99.90
11264;DHT22;5689;48.798;9.070;2023-02-04T07:30:47;5.30;99.90
11264;DHT22;5689;48.798;9.070;2023-02-04T07:33:17;5.30;99.90
11264;DHT22;5689;48.798;9.070;2023-02-04T07:35:45;5.30;99.90
11264;DHT22;5689;48.798;9.070;2023-02-04T07:38:13;5.40;99.90
11264;DHT22;5689;48.798;9.070;2023-02-04T07:40:41;5.50;99.90
11264;DHT22;5689;48.798;9.070;2023-02-04T07:43:09;5.40;99.90
11264;DHT22;5689;48.798;9.070;2023-02-04T07:45:37;5.40;99.90
11264;DHT22;5689;48.798;9.070;2023-02-04T07:48:06;5.30;99.90
11264;DHT22;5689;48.798;9.070;2023-02-04T07:50:35;5.40;99.90
11264;DHT22;5689;48.798;9.070;2023-02-04T07:53:03;5.40;99.90
11264;DHT22;5689;48.798;9.070;2023-02-04T07:55:31;5.50;99.90
11264;DHT22;5689;48.798;9.070;2023-02-04T07:57:59;5.50;99.90
11264;DHT22;5689;48.798;9.070;2023-02-04T08:00:27;5.60;99.90
11264;DHT22;5689;48.798;9.070;2023-02-04T08:02:55;5.50;99.90
11264;DHT22;5689;48.798;9.070;2023-02-04T08:05:23;5.60;99.90
11264;DHT22;5689;48.798;9.070;2023-02-04T08:07:53;5.60;99.90
11264;DHT22;5689;48.798;9.070;2023-02-04T08:10:21;5.50;99.90
11264;DHT22;5689;48.798;9.070;2023-02-04T08:12:49;5.60;99.90
11264;DHT22;5689;48.798;9.070;2023-02-04T08:15:17;5.60;99.90
11264;DHT22;5689;48.798;9.070;2023-02-04T08:17:45;5.70;99.90
11264;DHT22;5689;48.798;9.070;2023-02-04T08:20:13;5.80;99.90
11264;DHT22;5689;48.798;9.070;2023-02-04T08:22:42;5.80;99.90
11264;DHT22;5689;48.798;9.070;2023-02-04T08:25:12;6.00;99.90
11264;DHT22;5689;48.798;9.070;2023-02-04T08:27:40;6.20;99.90
11264;DHT22;5689;48.798;9.070;2023-02-04T08:30:09;6.40;99.90
11264;DHT22;5689;48.798;9.070;2023-02-04T08:32:37;6.40;99.90
11264;DHT22;5689;48.798;9.070;2023-02-04T08:35:07;6.40;99.90
11264;DHT22;5689;48.798;9.070;2023-02-04T08:37:35;6.30;99.90
11264;DHT22;5689;48.798;9.070;2023-02-04T08:40:04;6.50;99.90
11264;DHT22;5689;48.798;9.070;2023-02-04T08:42:33;6.60;99.90
11264;DHT22;5689;48.798;9.070;2023-02-04T08:45:02;6.80;99.90
11264;DHT22;5689;48.798;9.070;2023-02-04T08:47:30;6.90;99.90
11264;DHT22;5689;48.798;9.070;2023-02-04T08:49:58;7.10;99.90
11264;DHT22;5689;48.798;9.070;2023-02-04T08:52:26;7.30;99.90
11264;DHT22;5689;48.798;9.070;2023-02-04T08:54:55;7.30;99.90
11264;DHT22;5689;48.798;9.070;2023-02-04T08:57:23;7.40;99.90
11264;DHT22;5689;48.798;9.070;2023-02-04T08:59:53;7.20;99.90
11264;DHT22;5689;48.798;9.070;2023-02-04T09:02:21;7.20;99.90
11264;DHT22;5689;48.798;9.070;2023-02-04T09:04:49;7.30;99.90
11264;DHT22;5689;48.798;9.070;2023-02-04T09:07:17;7.60;99.90
11264;DHT22;5689;48.798;9.070;2023-02-04T09:09:45;7.50;99.90
11264;DHT22;5689;48.798;9.070;2023-02-04T09:12:13;7.60;99.90
11264;DHT22;5689;48.798;9.070;2023-02-04T09:14:41;7.90;99.90
11264;DHT22;5689;48.798;9.070;2023-02-04T09:17:11;7.70;99.90
11264;DHT22;5689;48.798;9.070;2023-02-04T09:19:39;7.20;99.90
11264;DHT22;5689;48.798;9.070;2023-02-04T09:22:07;7.10;99.90
11264;DHT22;5689;48.798;9.070;2023-02-04T09:24:35;7.10;99.90
11264;DHT22;5689;48.798;9.070;2023-02-04T09:27:03;7.40;99.90
11264;DHT22;5689;48.798;9.070;2023-02-04T09:29:31;8.20;99.90
11264;DHT22;5689;48.798;9.070;2023-02-04T09:31:59;8.70;99.90
11264;DHT22;5689;48.798;9.070;2023-02-04T09:34:29;9.40;99.90
11264;DHT22;5689;48.798;9.070;2023-02-04T09:36:57;8.90;99.90
11264;DHT22;5689;48.798;9.070;2023-02-04T09:39:25;8.20;99.90
11264;DHT22;5689;48.798;9.070;2023-02-04T09:41:53;8.10;99.90
11264;DHT22;5689;48.798;9.070;2023-02-04T09:44:23;7.90;99.90
11264;DHT22;5689;48.798;9.070;2023-02-04T09:46:54;8.00;99.90
11264;DHT22;5689;48.798;9.070;2023-02-04T09:49:23;7.90;99.90
11264;DHT22;5689;48.798;9.070;2023-02-04T09:51:53;7.90;99.90
11264;DHT22;5689;48.798;9.070;2023-02-04T09:54:22;8.00;99.90
11264;DHT22;5689;48.798;9.070;2023-02-04T09:56:51;8.00;99.90
11264;DHT22;5689;48.798;9.070;2023-02-04T09:59:21;8.10;99.90
11264;DHT22;5689;48.798;9.070;2023-02-04T10:01:55;8.10;99.90
11264;DHT22;5689;48.798;9.070;2023-02-04T10:04:24;7.40;99.90
11264;DHT22;5689;48.798;9.070;2023-02-04T10:06:54;7.10;99.90
11264;DHT22;5689;48.798;9.070;2023-02-04T10:09:24;7.10;99.90
11264;DHT22;5689;48.798;9.070;2023-02-04T10:11:52;7.00;99.90
11264;DHT22;5689;48.798;9.070;2023-02-04T10:14:21;6.70;99.90
11264;DHT22;5689;48.798;9.070;2023-02-04T10:16:53;6.80;99.90
11264;DHT22;5689;48.798;9.070;2023-02-04T10:19:24;6.70;99.90
11264;DHT22;5689;48.798;9.070;2023-02-04T10:21:54;6.80;99.90
11264;DHT22;5689;48.798;9.070;2023-02-04T10:24:24;6.90;99.90
11264;DHT22;5689;48.798;9.070;2023-02-04T10:26:53;6.90;99.90
11264;DHT22;5689;48.798;9.070;2023-02-04T10:29:22;7.20;99.90
11264;DHT22;5689;48.798;9.070;2023-02-04T10:31:52;7.20;99.90
11264;DHT22;5689;48.798;9.070;2023-02-04T10:34:22;7.10;99.90
11264;DHT22;5689;48.798;9.070;2023-02-04T10:36:52;7.10;99.90
11264;DHT22;5689;48.798;9.070;2023-02-04T10:39:23;6.90;99.90
11264;DHT22;5689;48.798;9.070;2023-02-04T10:41:53;7.10;99.90
11264;DHT22;5689;48.798;9.070;2023-02-04T10:44:25;7.00;99.90
11264;DHT22;5689;48.798;9.070;2023-02-04T10:46:58;6.90;99.90
11264;DHT22;5689;48.798;9.070;2023-02-04T10:49:26;6.90;99.90
11264;DHT22;5689;48.798;9.070;2023-02-04T10:51:54;7.20;99.90
11264;DHT22;5689;48.798;9.070;2023-02-04T10:54:28;7.30;99.90
11264;DHT22;5689;48.798;9.070;2023-02-04T10:56:58;7.30;99.90
11264;DHT22;5689;48.798;9.070;2023-02-04T10:59:27;7.20;99.90
11264;DHT22;5689;48.798;9.070;2023-02-04T11:01:56;7.30;99.90
11264;DHT22;5689;48.798;9.070;2023-02-04T11:04:25;7.20;99.90
11264;DHT22;5689;48.798;9.070;2023-02-04T11:06:54;7.30;99.90
11264;DHT22;5689;48.798;9.070;2023-02-04T11:09:22;7.30;99.90
11264;DHT22;5689;48.798;9.070;2023-02-04T11:11:51;7.10;99.90
11264;DHT22;5689;48.798;9.070;2023-02-04T11:14:26;7.00;99.90
11264;DHT22;5689;48.798;9.070;2023-02-04T11:16:56;7.20;99.90
11264;DHT22;5689;48.798;9.070;2023-02-04T11:19:32;7.30;99.90
11264;DHT22;5689;48.798;9.070;2023-02-04T11:22:06;7.10;99.90
11264;DHT22;5689;48.798;9.070;2023-02-04T11:24:35;7.50;99.90
11264;DHT22;5689;48.798;9.070;2023-02-04T11:27:20;7.50;99.90
11264;DHT22;5689;48.798;9.070;2023-02-04T11:29:49;7.30;99.90
11264;DHT22;5689;48.798;9.070;2023-02-04T11:32:29;7.50;99.90
11264;DHT22;5689;48.798;9.070;2023-02-04T11:35:23;7.90;99.90
11264;DHT22;5689;48.798;9.070;2023-02-04T11:37:52;8.30;99.90
11264;DHT22;5689;48.798;9.070;2023-02-04T11:40:24;7.60;99.90
11264;DHT22;5689;48.798;9.070;2023-02-04T11:42:59;8.10;99.90
11264;DHT22;5689;48.798;9.070;2023-02-04T11:45:30;8.40;99.90
11264;DHT22;5689;48.798;9.070;2023-02-04T11:48:00;8.90;99.90
11264;DHT22;5689;48.798;9.070;2023-02-04T11:50:30;9.10;99.90
11264;DHT22;5689;48.798;9.070;2023-02-04T11:53:00;9.60;99.90
11264;DHT22;5689;48.798;9.070;2023-02-04T11:55:29;9.60;99.90
11264;DHT22;5689;48.798;9.070;2023-02-04T11:57:59;10.40;99.90
11264;DHT22;5689;48.798;9.070;2023-02-04T12:00:29;11.20;99.90
11264;DHT22;5689;48.798;9.070;2023-02-04T12:03:00;11.10;99.90
11264;DHT22;5689;48.798;9.070;2023-02-04T12:05:37;10.80;99.90
11264;DHT22;5689;48.798;9.070;2023-02-04T12:08:11;9.80;99.90
11264;DHT22;5689;48.798;9.070;2023-02-04T12:10:47;9.50;99.90
11264;DHT22;5689;48.798;9.070;2023-02-04T12:13:21;9.30;99.90
11264;DHT22;5689;48.798;9.070;2023-02-04T12:15:56;9.20;99.90
11264;DHT22;5689;48.798;9.070;2023-02-04T12:18:25;9.40;99.90
11264;DHT22;5689;48.798;9.070;2023-02-04T12:20:54;9.90;99.90
11264;DHT22;5689;48.798;9.070;2023-02-04T12:23:23;10.20;99.90
11264;DHT22;5689;48.798;9.070;2023-02-04T12:25:52;9.40;99.90
11264;DHT22;5689;48.798;9.070;2023-02-04T12:28:21;9.40;99.90
11264;DHT22;5689;48.798;9.070;2023-02-04T12:30:49;9.40;99.90
11264;DHT22;5689;48.798;9.070;2023-02-04T12:33:17;8.80;99.90
11264;DHT22;5689;48.798;9.070;2023-02-04T12:35:45;8.80;99.90
11264;DHT22;5689;48.798;9.070;2023-02-04T12:38:14;9.20;99.90
11264;DHT22;5689;48.798;9.070;2023-02-04T12:40:42;9.50;99.90
11264;DHT22;5689;48.798;9.070;2023-02-04T12:43:11;9.40;99.90
11264;DHT22;5689;48.798;9.070;2023-02-04T12:45:40;9.30;99.90
11264;DHT22;5689;48.798;9.070;2023-02-04T12:48:11;8.90;99.90
11264;DHT22;5689;48.798;9.070;2023-02-04T12:50:40;9.40;99.90
11264;DHT22;5689;48.798;9.070;2023-02-04T12:53:10;9.50;99.90
11264;DHT22;5689;48.798;9.070;2023-02-04T12:55:51;9.40;99.90
11264;DHT22;5689;48.798;9.070;2023-02-04T12:58:19;8.90;99.90
11264;DHT22;5689;48.798;9.070;2023-02-04T13:00:49;8.40;99.90
11264;DHT22;5689;48.798;9.070;2023-02-04T13:03:17;8.30;99.90
11264;DHT22;5689;48.798;9.070;2023-02-04T13:05:47;8.20;99.90
11264;DHT22;5689;48.798;9.070;2023-02-04T13:08:15;8.40;99.90
11264;DHT22;5689;48.798;9.070;2023-02-04T13:10:43;8.10;99.90
11264;DHT22;5689;48.798;9.070;2023-02-04T13:13:16;7.90;99.90
11264;DHT22;5689;48.798;9.070;2023-02-04T13:15:45;8.00;99.90
11264;DHT22;5689;48.798;9.070;2023-02-04T13:18:16;8.50;99.90
11264;DHT22;5689;48.798;9.070;2023-02-04T13:20:45;8.00;99.90
11264;DHT22;5689;48.798;9.070;2023-02-04T13:23:13;8.40;99.90
11264;DHT22;5689;48.798;9.070;2023-02-04T13:25:41;8.80;99.90
11264;DHT22;5689;48.798;9.070;2023-02-04T13:28:09;8.60;99.90
11264;DHT22;5689;48.798;9.070;2023-02-04T13:30:37;8.90;99.90
11264;DHT22;5689;48.798;9.070;2023-02-04T13:33:05;9.30;99.90
11264;DHT22;5689;48.798;9.070;2023-02-04T13:35:35;9.10;99.90
11264;DHT22;5689;48.798;9.070;2023-02-04T13:38:04;9.30;99.90
11264;DHT22;5689;48.798;9.070;2023-02-04T13:40:32;9.00;99.90
11264;DHT22;5689;48.798;9.070;2023-02-04T13:43:00;9.00;99.90
11264;DHT22;5689;48.798;9.070;2023-02-04T13:45:28;9.50;99.90
11264;DHT22;5689;48.798;9.070;2023-02-04T13:47:56;9.70;99.90
11264;DHT22;5689;48.798;9.070;2023-02-04T13:50:24;9.90;99.90
11264;DHT22;5689;48.798;9.070;2023-02-04T13:52:54;9.20;99.90
11264;DHT22;5689;48.798;9.070;2023-02-04T13:55:22;9.20;99.90
11264;DHT22;5689;48.798;9.070;2023-02-04T13:57:50;10.10;99.90
11264;DHT22;5689;48.798;9.070;2023-02-04T14:00:19;11.10;99.90
11264;DHT22;5689;48.798;9.070;2023-02-04T14:02:47;11.10;99.90
11264;DHT22;5689;48.798;9.070;2023-02-04T14:05:15;11.40;99.90
11264;DHT22;5689;48.798;9.070;2023-02-04T14:07:43;11.90;99.90
11264;DHT22;5689;48.798;9.070;2023-02-04T14:10:12;10.70;99.90
11264;DHT22;5689;48.798;9.070;2023-02-04T14:12:40;11.00;99.90
11264;DHT22;5689;48.798;9.070;2023-02-04T14:15:09;11.30;99.90
11264;DHT22;5689;48.798;9.070;2023-02-04T14:17:37;10.20;99.90
11264;DHT22;5689;48.798;9.070;2023-02-04T14:20:05;11.00;99.90
11264;DHT22;5689;48.798;9.070;2023-02-04T14:22:33;12.70;99.90
11264;DHT22;5689;48.798;9.070;2023-02-04T14:25:01;14.00;99.90
11264;DHT22;5689;48.798;9.070;2023-02-04T14:27:31;14.10;99.70
11264;DHT22;5689;48.798;9.070;2023-02-04T14:30:01;14.50;98.50
11264;DHT22;5689;48.798;9.070;2023-02-04T14:32:29;13.60;98.30
11264;DHT22;5689;48.798;9.070;2023-02-04T14:34:57;12.40;98.40
11264;DHT22;5689;48.798;9.070;2023-02-04T14:37:24;13.20;99.10
11264;DHT22;5689;48.798;9.070;2023-02-04T14:39:54;13.30;98.80
11264;DHT22;5689;48.798;9.070;2023-02-04T14:42:22;13.40;97.90
11264;DHT22;5689;48.798;9.070;2023-02-04T14:44:51;11.50;99.90
11264;DHT22;5689;48.798;9.070;2023-02-04T14:47:19;12.70;99.00
11264;DHT22;5689;48.798;9.070;2023-02-04T14:49:47;12.40;98.50
11264;DHT22;5689;48.798;9.070;2023-02-04T14:52:15;13.10;98.60
11264;DHT22;5689;48.798;9.070;2023-02-04T14:54:43;13.50;96.70
11264;DHT22;5689;48.798;9.070;2023-02-04T14:57:11;14.50;95.60
11264;DHT22;5689;48.798;9.070;2023-02-04T14:59:39;14.00;94.70
11264;DHT22;5689;48.798;9.070;2023-02-04T15:02:10;13.40;95.40
11264;DHT22;5689;48.798;9.070;2023-02-04T15:04:40;10.20;98.60
11264;DHT22;5689;48.798;9.070;2023-02-04T15:07:09;9.30;99.90
11264;DHT22;5689;48.798;9.070;2023-02-04T15:09:37;9.60;99.90
11264;DHT22;5689;48.798;9.070;2023-02-04T15:12:05;9.30;99.90
11264;DHT22;5689;48.798;9.070;2023-02-04T15:14:33;9.10;99.90
11264;DHT22;5689;48.798;9.070;2023-02-04T15:17:01;9.00;99.90
11264;DHT22;5689;48.798;9.070;2023-02-04T15:19:30;8.50;99.90
11264;DHT22;5689;48.798;9.070;2023-02-04T15:21:59;8.20;99.90
11264;DHT22;5689;48.798;9.070;2023-02-04T15:24:27;8.20;99.90
11264;DHT22;5689;48.798;9.070;2023-02-04T15:26:55;8.50;99.90
11264;DHT22;5689;48.798;9.070;2023-02-04T15:29:23;8.60;99.90
11264;DHT22;5689;48.798;9.070;2023-02-04T15:31:51;8.30;99.90
11264;DHT22;5689;48.798;9.070;2023-02-04T15:34:19;8.30;99.90
11264;DHT22;5689;48.798;9.070;2023-02-04T15:36:49;7.90;99.90
11264;DHT22;5689;48.798;9.070;2023-02-04T15:39:17;7.90;99.90
11264;DHT22;5689;48.798;9.070;2023-02-04T15:41:44;8.00;99.90
11264;DHT22;5689;48.798;9.070;2023-02-04T15:44:12;8.10;99.90
11264;DHT22;5689;48.798;9.070;2023-02-04T15:46:41;7.90;99.90
11264;DHT22;5689;48.798;9.070;2023-02-04T15:49:09;8.00;99.90
11264;DHT22;5689;48.798;9.070;2023-02-04T15:51:36;7.60;99.90
11264;DHT22;5689;48.798;9.070;2023-02-04T15:54:06;7.60;99.90
11264;DHT22;5689;48.798;9.070;2023-02-04T15:56:34;7.40;99.90
11264;DHT22;5689;48.798;9.070;2023-02-04T15:59:02;7.50;99.90
11264;DHT22;5689;48.798;9.070;2023-02-04T16:01:30;7.50;99.90
11264;DHT22;5689;48.798;9.070;2023-02-04T16:03:58;7.40;99.90
11264;DHT22;5689;48.798;9.070;2023-02-04T16:06:26;7.40;99.90
11264;DHT22;5689;48.798;9.070;2023-02-04T16:08:54;7.10;99.90
11264;DHT22;5689;48.798;9.070;2023-02-04T16:11:24;7.10;99.90